createdAt,value
2022-11-19T00:02:02.362Z,98.30
2022-11-19T00:04:31.609Z,97.90
2022-11-19T00:06:59.480Z,97.50
2022-11-19T00:09:27.348Z,97.10
2022-11-19T00:12:12.633Z,97.10
2022-11-19T00:14:40.505Z,97.50
2022-11-19T00:17:08.322Z,99.20
2022-11-19T00:19:37.498Z,99.90
2022-11-19T00:22:05.276Z,99.90
2022-11-19T00:24:33.235Z,99.90
2022-11-19T00:27:01.016Z,99.90
2022-11-19T00:29:28.812Z,99.90
2022-11-19T00:31:56.582Z,99.90
2022-11-19T00:34:24.407Z,99.50
2022-11-19T00:36:53.540Z,98.70
2022-11-19T00:39:21.934Z,98.10
2022-11-19T00:41:50.096Z,98.10
2022-11-19T00:44:17.870Z,97.90
2022-11-19T00:46:45.656Z,96.50
2022-11-19T00:49:13.462Z,96.40
2022-11-19T00:51:41.261Z,95.80
2022-11-19T00:54:10.434Z,95.60
2022-11-19T00:56:38.282Z,95.70
2022-11-19T00:59:06.110Z,95.80
2022-11-19T01:01:34.270Z,95.80
2022-11-19T01:04:02.258Z,95.90
2022-11-19T01:06:30.069Z,96.10
2022-11-19T01:08:58.128Z,95.90
2022-11-19T01:11:29.397Z,95.70
2022-11-19T01:13:58.803Z,95.70
2022-11-19T01:16:28.325Z,95.90
2022-11-19T01:18:56.683Z,96.00
2022-11-19T01:21:27.278Z,96.60
2022-11-19T01:23:55.181Z,96.90
2022-11-19T01:26:23.262Z,97.10
2022-11-19T01:28:52.566Z,97.00
2022-11-19T01:31:22.630Z,96.30
2022-11-19T01:33:51.140Z,96.20
2022-11-19T01:36:20.467Z,96.80
2022-11-19T01:38:50.793Z,97.00
2022-11-19T01:41:18.929Z,96.80
2022-11-19T01:43:48.677Z,96.50
2022-11-19T01:46:19.679Z,96.40
2022-11-19T01:48:50.912Z,96.20
2022-11-19T01:51:23.858Z,96.10
2022-11-19T01:53:55.008Z,96.60
2022-11-19T01:56:24.533Z,96.90
2022-11-19T01:58:56.732Z,96.70
2022-11-19T02:01:25.898Z,97.10
2022-11-19T02:03:53.926Z,97.50
2022-11-19T02:06:22.470Z,97.80
2022-11-19T02:08:51.514Z,98.00
2022-11-19T02:11:31.481Z,98.10
2022-11-19T02:14:11.452Z,98.20
2022-11-19T02:16:47.978Z,98.40
2022-11-19T02:19:39.716Z,98.20
2022-11-19T02:22:20.166Z,98.20
2022-11-19T02:24:53.659Z,98.40
2022-11-19T02:27:48.916Z,98.30
2022-11-19T02:30:19.204Z,98.20
2022-11-19T02:32:54.926Z,98.40
2022-11-19T02:35:29.697Z,98.20
2022-11-19T02:38:01.636Z,98.30
2022-11-19T02:40:31.329Z,98.40
2022-11-19T02:43:06.416Z,98.90
2022-11-19T02:45:38.612Z,99.00
2022-11-19T02:48:11.599Z,98.70
2022-11-19T02:50:44.469Z,98.00
2022-11-19T02:53:12.509Z,97.60
2022-11-19T02:55:40.902Z,97.20
2022-11-19T02:58:33.789Z,97.40
2022-11-19T03:01:23.333Z,97.10
2022-11-19T03:04:10.210Z,96.60
2022-11-19T03:06:38.704Z,95.40
2022-11-19T03:09:06.608Z,94.40
2022-11-19T03:11:34.606Z,93.80
2022-11-19T03:14:29.497Z,93.00
2022-11-19T03:17:02.059Z,93.30
2022-11-19T03:19:37.811Z,93.60
2022-11-19T03:22:09.705Z,93.70
2022-11-19T03:24:41.446Z,93.80
2022-11-19T03:27:13.017Z,94.30
2022-11-19T03:29:44.704Z,94.50
2022-11-19T03:32:17.358Z,95.00
2022-11-19T03:34:47.753Z,94.50
2022-11-19T03:37:18.544Z,94.40
2022-11-19T03:39:48.412Z,94.60
2022-11-19T03:42:18.030Z,94.30
2022-11-19T03:44:50.119Z,93.90
2022-11-19T03:47:22.080Z,94.00
2022-11-19T03:49:54.946Z,93.70
2022-11-19T03:52:22.946Z,93.30
2022-11-19T03:54:51.062Z,93.30
2022-11-19T03:57:22.057Z,92.90
2022-11-19T03:59:49.845Z,93.20
2022-11-19T04:02:19.059Z,93.30
2022-11-19T04:04:46.832Z,93.00
2022-11-19T04:07:16.455Z,92.80
2022-11-19T04:09:44.548Z,92.80
2022-11-19T04:12:16.946Z,92.50
2022-11-19T04:14:45.362Z,92.10
2022-11-19T04:17:13.450Z,92.00
2022-11-19T04:19:42.672Z,91.70
2022-11-19T04:22:10.825Z,91.60
2022-11-19T04:24:38.642Z,92.10
2022-11-19T04:27:06.480Z,92.20
2022-11-19T04:29:34.283Z,92.20
2022-11-19T04:32:02.029Z,92.30
2022-11-19T04:34:29.873Z,92.20
2022-11-19T04:36:59.025Z,92.50
2022-11-19T04:39:26.908Z,92.90
2022-11-19T04:41:54.808Z,93.00
2022-11-19T04:44:22.569Z,93.00
2022-11-19T04:46:50.346Z,93.40
2022-11-19T04:49:18.537Z,93.70
2022-11-19T04:51:46.468Z,93.70
2022-11-19T04:54:15.660Z,93.70
2022-11-19T04:56:43.484Z,93.60
2022-11-19T04:59:11.285Z,94.00
2022-11-19T05:01:39.148Z,94.50
2022-11-19T05:04:06.980Z,94.30
2022-11-19T05:06:34.794Z,94.40
2022-11-19T05:09:02.584Z,94.00
2022-11-19T05:11:31.686Z,93.90
2022-11-19T05:13:59.516Z,93.30
2022-11-19T05:16:27.317Z,92.80
2022-11-19T05:18:55.131Z,92.90
2022-11-19T05:21:22.945Z,92.90
2022-11-19T05:23:50.704Z,93.00
2022-11-19T05:26:18.492Z,92.90
2022-11-19T05:28:47.642Z,92.50
2022-11-19T05:31:15.550Z,92.50
2022-11-19T05:33:43.414Z,92.90
2022-11-19T05:36:11.337Z,93.00
2022-11-19T05:38:39.140Z,93.40
2022-11-19T05:41:07.138Z,93.60
2022-11-19T05:43:35.005Z,93.90
2022-11-19T05:46:04.697Z,94.00
2022-11-19T05:48:32.512Z,94.40
2022-11-19T05:51:00.285Z,94.90
2022-11-19T05:53:28.356Z,95.10
2022-11-19T05:55:56.162Z,95.10
2022-11-19T05:58:24.024Z,94.70
2022-11-19T06:00:55.859Z,94.80
2022-11-19T06:03:25.206Z,94.30
2022-11-19T06:05:53.252Z,93.50
2022-11-19T06:08:21.032Z,93.00
2022-11-19T06:10:48.997Z,92.60
2022-11-19T06:13:16.807Z,92.80
2022-11-19T06:15:44.684Z,91.80
2022-11-19T06:18:12.564Z,91.90
2022-11-19T06:20:41.671Z,92.50
2022-11-19T06:23:09.456Z,92.50
2022-11-19T06:25:37.234Z,92.50
2022-11-19T06:28:05.246Z,92.40
2022-11-19T06:30:33.055Z,92.60
2022-11-19T06:33:00.993Z,92.90
2022-11-19T06:35:28.787Z,93.20
2022-11-19T06:37:57.929Z,93.10
2022-11-19T06:40:25.733Z,92.50
2022-11-19T06:42:53.536Z,92.70
2022-11-19T06:45:21.459Z,92.40
2022-11-19T06:47:49.923Z,92.10
2022-11-19T06:50:18.151Z,92.20
2022-11-19T06:52:46.134Z,91.10
2022-11-19T06:55:15.436Z,91.40
2022-11-19T06:57:43.249Z,90.90
2022-11-19T07:00:12.843Z,91.10
2022-11-19T07:02:40.984Z,91.00
2022-11-19T07:05:09.593Z,91.70
2022-11-19T07:07:37.497Z,91.50
2022-11-19T07:10:05.876Z,91.60
2022-11-19T07:12:35.009Z,92.20
2022-11-19T07:15:04.632Z,92.10
2022-11-19T07:17:32.797Z,92.40
2022-11-19T07:20:00.645Z,92.80
2022-11-19T07:22:28.524Z,93.10
2022-11-19T07:24:56.314Z,94.30
2022-11-19T07:27:24.312Z,94.60
2022-11-19T07:29:53.436Z,94.70
2022-11-19T07:32:21.235Z,95.00
2022-11-19T07:34:49.019Z,95.80
2022-11-19T07:37:16.836Z,95.10
2022-11-19T07:39:46.811Z,95.40
2022-11-19T07:42:32.140Z,95.00
2022-11-19T07:45:01.326Z,93.60
2022-11-19T07:47:29.087Z,94.00
2022-11-19T07:49:56.875Z,92.50
2022-11-19T07:52:24.700Z,91.90
2022-11-19T07:54:52.517Z,90.60
2022-11-19T07:57:20.536Z,90.50
2022-11-19T07:59:49.697Z,89.90
2022-11-19T08:02:18.818Z,89.20
2022-11-19T08:04:46.796Z,88.90
2022-11-19T08:07:14.621Z,88.50
2022-11-19T08:09:42.412Z,88.30
2022-11-19T08:12:10.214Z,88.70
2022-11-19T08:14:38.030Z,87.30
2022-11-19T08:17:23.653Z,87.50
2022-11-19T08:19:52.801Z,87.40
2022-11-19T08:22:20.683Z,86.80
2022-11-19T08:24:48.584Z,86.90
2022-11-19T08:27:17.265Z,86.00
2022-11-19T08:29:45.136Z,85.50
2022-11-19T08:32:12.941Z,85.90
2022-11-19T08:34:40.737Z,85.40
2022-11-19T08:37:11.146Z,85.40
2022-11-19T08:39:38.937Z,84.40
2022-11-19T08:42:24.517Z,83.50
2022-11-19T08:44:54.103Z,84.40
2022-11-19T08:47:22.158Z,82.30
2022-11-19T08:49:49.949Z,82.70
2022-11-19T08:52:19.135Z,82.70
2022-11-19T08:54:46.962Z,82.90
2022-11-19T08:57:14.775Z,82.60
2022-11-19T08:59:42.542Z,82.20
2022-11-19T09:02:11.509Z,81.60
2022-11-19T09:04:39.409Z,81.60
2022-11-19T09:07:07.224Z,82.10
2022-11-19T09:09:36.403Z,80.70
2022-11-19T09:12:04.372Z,81.00
2022-11-19T09:14:32.315Z,81.40
2022-11-19T09:17:00.188Z,80.40
2022-11-19T09:19:28.048Z,79.30
2022-11-19T09:21:55.928Z,79.70
2022-11-19T09:24:23.742Z,78.40
2022-11-19T09:26:53.469Z,78.30
2022-11-19T09:29:21.685Z,78.50
2022-11-19T09:31:49.579Z,78.30
2022-11-19T09:34:17.740Z,79.20
2022-11-19T09:36:45.773Z,79.10
2022-11-19T09:39:13.711Z,79.30
2022-11-19T09:41:51.024Z,78.60
2022-11-19T09:44:42.801Z,78.90
2022-11-19T09:47:19.537Z,79.30
2022-11-19T09:49:52.423Z,79.30
2022-11-19T09:52:23.503Z,79.70
2022-11-19T09:54:53.533Z,78.30
2022-11-19T09:57:28.822Z,78.70
2022-11-19T10:00:00.012Z,78.90
2022-11-19T10:02:28.670Z,78.70
2022-11-19T10:04:56.635Z,78.90
2022-11-19T10:07:33.465Z,79.60
2022-11-19T10:10:12.610Z,79.40
2022-11-19T10:12:54.431Z,79.00
2022-11-19T10:15:27.573Z,79.60
2022-11-19T10:18:07.014Z,80.00
2022-11-19T10:20:52.693Z,79.70
2022-11-19T10:23:27.888Z,79.80
2022-11-19T10:26:04.054Z,79.80
2022-11-19T10:28:36.241Z,79.20
2022-11-19T10:31:09.399Z,78.70
2022-11-19T10:33:42.048Z,78.50
2022-11-19T10:36:14.620Z,79.60
2022-11-19T10:38:52.347Z,80.60
2022-11-19T10:41:27.957Z,80.10
2022-11-19T10:44:01.058Z,80.90
2022-11-19T10:46:30.261Z,80.80
2022-11-19T10:48:59.953Z,80.90
2022-11-19T10:51:31.094Z,80.40
2022-11-19T10:53:58.965Z,79.90
2022-11-19T10:56:37.588Z,79.60
2022-11-19T10:59:12.729Z,78.80
2022-11-19T11:01:45.472Z,78.40
2022-11-19T11:04:18.096Z,79.20
2022-11-19T11:06:54.021Z,79.90
2022-11-19T11:09:32.785Z,80.40
2022-11-19T11:12:22.623Z,80.80
2022-11-19T11:14:53.290Z,80.50
2022-11-19T11:17:24.671Z,79.90
2022-11-19T11:20:00.597Z,80.90
2022-11-19T11:22:29.302Z,81.40
2022-11-19T11:25:00.466Z,81.10
2022-11-19T11:27:33.873Z,80.90
2022-11-19T11:30:18.196Z,80.60
2022-11-19T11:32:47.672Z,80.60
2022-11-19T11:35:34.027Z,80.70
2022-11-19T11:38:03.358Z,81.20
2022-11-19T11:40:32.284Z,80.80
2022-11-19T11:43:00.238Z,80.00
2022-11-19T11:45:32.928Z,81.00
2022-11-19T11:48:06.530Z,80.60
2022-11-19T11:50:36.250Z,78.70
2022-11-19T11:53:09.828Z,79.40
2022-11-19T11:55:39.431Z,80.20
2022-11-19T11:58:28.253Z,79.60
2022-11-19T12:01:15.488Z,79.70
2022-11-19T12:03:56.509Z,78.70
2022-11-19T12:06:27.164Z,78.30
2022-11-19T12:09:04.301Z,78.50
2022-11-19T12:11:52.270Z,79.60
2022-11-19T12:14:25.029Z,79.60
2022-11-19T12:17:15.567Z,79.00
2022-11-19T12:20:03.690Z,78.10
2022-11-19T12:22:40.584Z,78.30
2022-11-19T12:25:21.443Z,77.90
2022-11-19T12:28:14.516Z,77.80
2022-11-19T12:30:56.731Z,76.30
2022-11-19T12:33:38.305Z,75.70
2022-11-19T12:36:19.826Z,75.30
2022-11-19T12:38:56.382Z,74.00
2022-11-19T12:41:41.380Z,74.00
2022-11-19T12:44:18.765Z,74.60
2022-11-19T12:46:56.897Z,75.30
2022-11-19T12:49:45.477Z,75.70
2022-11-19T12:52:36.446Z,74.10
2022-11-19T12:55:12.876Z,74.20
2022-11-19T12:57:48.256Z,73.40
2022-11-19T13:00:19.202Z,73.20
2022-11-19T13:02:56.109Z,73.50
2022-11-19T13:05:34.183Z,73.30
2022-11-19T13:08:09.119Z,73.30
2022-11-19T13:10:40.445Z,73.50
2022-11-19T13:13:12.785Z,72.30
2022-11-19T13:15:46.781Z,73.00
2022-11-19T13:18:17.658Z,74.50
2022-11-19T13:20:48.265Z,75.50
2022-11-19T13:23:23.424Z,76.90
2022-11-19T13:25:57.810Z,78.40
2022-11-19T13:28:31.816Z,80.20
2022-11-19T13:31:04.642Z,79.70
2022-11-19T13:33:39.766Z,78.20
2022-11-19T13:36:16.188Z,78.30
2022-11-19T13:38:50.894Z,78.60
2022-11-19T13:41:24.974Z,78.70
2022-11-19T13:44:13.491Z,79.40
2022-11-19T13:46:45.686Z,81.90
2022-11-19T13:49:19.365Z,84.30
2022-11-19T13:51:50.580Z,84.70
2022-11-19T13:54:26.187Z,83.90
2022-11-19T13:56:57.737Z,84.40
2022-11-19T13:59:30.016Z,83.60
2022-11-19T14:02:13.689Z,83.50
2022-11-19T14:05:19.557Z,83.40
2022-11-19T14:08:01.064Z,83.60
2022-11-19T14:10:37.448Z,84.90
2022-11-19T14:13:24.742Z,85.00
2022-11-19T14:16:29.498Z,86.10
2022-11-19T14:19:19.264Z,85.00
2022-11-19T14:22:06.915Z,82.70
2022-11-19T14:25:11.993Z,81.70
2022-11-19T14:27:41.730Z,83.10
2022-11-19T14:30:12.347Z,83.80
2022-11-19T14:32:47.501Z,84.80
2022-11-19T14:35:32.996Z,83.70
2022-11-19T14:38:26.222Z,84.80
2022-11-19T14:41:09.049Z,85.00
2022-11-19T14:44:09.219Z,83.70
2022-11-19T14:46:38.699Z,83.10
2022-11-19T14:49:32.816Z,83.40
2022-11-19T14:52:01.178Z,83.60
2022-11-19T14:54:33.327Z,83.90
2022-11-19T14:57:05.602Z,83.80
2022-11-19T14:59:38.475Z,82.00
2022-11-19T15:02:21.090Z,82.10
2022-11-19T15:04:55.238Z,82.10
2022-11-19T15:07:38.685Z,80.90
2022-11-19T15:10:31.689Z,82.00
2022-11-19T15:13:25.112Z,82.20
2022-11-19T15:16:07.860Z,82.10
2022-11-19T15:19:14.574Z,82.40
2022-11-19T15:22:19.715Z,82.60
2022-11-19T15:25:01.552Z,83.20
2022-11-19T15:27:42.947Z,83.00
2022-11-19T15:30:17.430Z,82.70
2022-11-19T15:33:16.744Z,82.50
2022-11-19T15:36:08.176Z,83.10
2022-11-19T15:38:40.703Z,83.00
2022-11-19T15:41:13.312Z,83.80
2022-11-19T15:43:44.831Z,84.40
2022-11-19T15:46:16.235Z,84.80
2022-11-19T15:48:57.512Z,85.30
2022-11-19T15:51:25.591Z,85.60
2022-11-19T15:54:02.558Z,86.00
2022-11-19T15:56:33.475Z,86.60
2022-11-19T15:59:03.055Z,87.30
2022-11-19T16:01:32.972Z,87.50
2022-11-19T16:04:07.093Z,88.40
2022-11-19T16:06:36.008Z,89.10
2022-11-19T16:09:05.881Z,89.80
2022-11-19T16:11:54.723Z,91.00
2022-11-19T16:14:42.261Z,91.40
2022-11-19T16:17:30.770Z,91.60
2022-11-19T16:20:20.340Z,91.10
2022-11-19T16:22:53.873Z,91.50
2022-11-19T16:25:28.891Z,91.70
2022-11-19T16:27:59.278Z,91.90
2022-11-19T16:30:30.561Z,91.90
2022-11-19T16:32:59.717Z,92.10
2022-11-19T16:35:31.197Z,92.60
2022-11-19T16:38:00.832Z,92.50
2022-11-19T16:40:51.124Z,92.60
2022-11-19T16:43:19.099Z,92.90
2022-11-19T16:45:47.558Z,93.00
2022-11-19T16:48:57.842Z,93.60
2022-11-19T16:51:33.037Z,94.20
2022-11-19T16:54:01.533Z,94.60
2022-11-19T16:56:35.222Z,94.30
2022-11-19T16:59:05.173Z,94.50
2022-11-19T17:01:33.536Z,94.30
2022-11-19T17:04:05.449Z,95.30
2022-11-19T17:06:37.808Z,95.70
2022-11-19T17:09:06.918Z,97.30
2022-11-19T17:12:09.208Z,98.30
2022-11-19T17:14:58.894Z,98.40
2022-11-19T17:17:40.806Z,96.40
2022-11-19T17:21:00.708Z,96.80
2022-11-19T17:23:32.257Z,96.40
2022-11-19T17:26:01.861Z,96.20
2022-11-19T17:28:36.327Z,97.10
2022-11-19T17:31:07.308Z,96.70
2022-11-19T17:33:36.732Z,96.50
2022-11-19T17:36:05.189Z,96.20
2022-11-19T17:38:34.873Z,96.40
2022-11-19T17:41:07.355Z,96.70
2022-11-19T17:43:54.409Z,96.70
2022-11-19T17:46:23.689Z,97.00
2022-11-19T17:48:51.721Z,97.00
2022-11-19T17:51:20.835Z,96.20
2022-11-19T17:53:51.659Z,96.50
2022-11-19T17:56:21.279Z,96.70
2022-11-19T17:58:49.129Z,96.70
2022-11-19T18:01:17.635Z,96.00
2022-11-19T18:03:45.581Z,95.80
2022-11-19T18:06:15.025Z,96.00
2022-11-19T18:08:43.489Z,95.90
2022-11-19T18:11:14.201Z,95.80
2022-11-19T18:13:43.114Z,95.70
2022-11-19T18:16:14.313Z,95.00
2022-11-19T18:18:42.285Z,94.40
2022-11-19T18:21:12.143Z,93.70
2022-11-19T18:23:40.766Z,93.30
2022-11-19T18:26:11.973Z,92.50
2022-11-19T18:28:41.681Z,91.70
2022-11-19T18:31:16.133Z,90.60
2022-11-19T18:33:45.271Z,90.40
2022-11-19T18:36:13.124Z,90.50
2022-11-19T18:38:41.111Z,89.80
2022-11-19T18:41:12.311Z,89.70
2022-11-19T18:43:58.138Z,89.70
2022-11-19T18:46:25.998Z,89.90
2022-11-19T18:48:54.487Z,90.10
2022-11-19T18:51:25.158Z,89.60
2022-11-19T18:53:53.014Z,89.50
2022-11-19T18:56:22.150Z,89.40
2022-11-19T18:58:50.254Z,89.90
2022-11-19T19:01:18.297Z,89.90
2022-11-19T19:03:46.564Z,90.20
2022-11-19T19:06:15.666Z,90.10
2022-11-19T19:08:43.532Z,90.00
2022-11-19T19:11:30.142Z,89.90
2022-11-19T19:13:59.310Z,90.10
2022-11-19T19:16:27.356Z,90.50
2022-11-19T19:18:55.440Z,90.50
2022-11-19T19:21:24.476Z,90.60
2022-11-19T19:23:52.279Z,90.40
2022-11-19T19:26:20.467Z,90.40
2022-11-19T19:28:50.234Z,90.60
2022-11-19T19:31:19.429Z,90.30
2022-11-19T19:33:47.306Z,90.20
2022-11-19T19:36:16.195Z,90.70
2022-11-19T19:38:44.184Z,90.90
2022-11-19T19:41:15.793Z,91.40
2022-11-19T19:43:43.600Z,92.50
2022-11-19T19:46:15.733Z,93.40
2022-11-19T19:48:46.125Z,93.70
2022-11-19T19:51:14.590Z,93.90
2022-11-19T19:53:42.674Z,93.90
2022-11-19T19:56:13.767Z,94.20
2022-11-19T19:58:43.625Z,94.30
2022-11-19T20:01:13.274Z,94.70
2022-11-19T20:03:41.128Z,95.10
2022-11-19T20:06:12.332Z,95.60
2022-11-19T20:08:40.874Z,95.80
2022-11-19T20:11:11.418Z,95.40
2022-11-19T20:13:40.116Z,94.90
2022-11-19T20:16:13.245Z,94.70
2022-11-19T20:18:46.516Z,93.60
2022-11-19T20:21:19.130Z,93.50
2022-11-19T20:23:47.543Z,93.30
2022-11-19T20:26:17.024Z,92.70
2022-11-19T20:28:45.341Z,92.80
2022-11-19T20:31:15.432Z,92.80
2022-11-19T20:33:45.986Z,92.60
2022-11-19T20:36:16.618Z,92.90
2022-11-19T20:38:46.058Z,92.60
2022-11-19T20:41:29.399Z,92.60
2022-11-19T20:44:15.370Z,92.40
2022-11-19T20:46:43.423Z,92.20
2022-11-19T20:49:16.901Z,92.40
2022-11-19T20:51:46.881Z,92.20
2022-11-19T20:54:15.478Z,92.50
2022-11-19T20:56:43.565Z,92.60
2022-11-19T20:59:12.246Z,92.60
2022-11-19T21:01:40.553Z,92.50
2022-11-19T21:04:09.392Z,92.50
2022-11-19T21:06:37.262Z,92.70
2022-11-19T21:09:07.114Z,92.70
2022-11-19T21:11:35.164Z,92.70
2022-11-19T21:14:03.721Z,92.40
2022-11-19T21:16:32.677Z,92.40
2022-11-19T21:19:00.610Z,92.30
2022-11-19T21:21:28.730Z,92.20
2022-11-19T21:23:56.898Z,92.20
2022-11-19T21:26:27.737Z,91.90
2022-11-19T21:28:57.569Z,91.90
2022-11-19T21:31:38.145Z,91.70
2022-11-19T21:34:07.140Z,91.60
2022-11-19T21:36:35.409Z,91.30
2022-11-19T21:39:03.578Z,91.20
2022-11-19T21:41:33.414Z,91.00
2022-11-19T21:44:01.662Z,90.70
2022-11-19T21:46:29.536Z,90.70
2022-11-19T21:48:57.392Z,90.50
2022-11-19T21:51:25.556Z,90.10
2022-11-19T21:53:55.025Z,90.10
2022-11-19T21:56:22.852Z,90.10
2022-11-19T21:58:52.005Z,90.20
2022-11-19T22:01:19.990Z,90.20
2022-11-19T22:03:48.158Z,90.50
2022-11-19T22:06:16.018Z,90.90
2022-11-19T22:08:44.387Z,91.40
2022-11-19T22:11:31.370Z,92.00
2022-11-19T22:14:02.763Z,92.70
2022-11-19T22:16:31.687Z,93.30
2022-11-19T22:18:59.520Z,93.50
2022-11-19T22:21:28.903Z,93.40
2022-11-19T22:23:56.969Z,93.30
2022-11-19T22:26:25.110Z,93.40
2022-11-19T22:28:52.991Z,93.60
2022-11-19T22:31:22.130Z,93.50
2022-11-19T22:33:51.643Z,93.20
2022-11-19T22:36:20.939Z,93.20
2022-11-19T22:38:48.754Z,93.20
2022-11-19T22:41:18.817Z,92.90
2022-11-19T22:43:47.082Z,92.10
2022-11-19T22:46:16.082Z,90.60
2022-11-19T22:48:45.304Z,90.70
2022-11-19T22:51:15.704Z,91.60
2022-11-19T22:53:44.223Z,91.80
2022-11-19T22:56:14.147Z,92.30
2022-11-19T22:58:42.143Z,92.90
2022-11-19T23:01:17.091Z,92.80
2022-11-19T23:03:46.839Z,92.60
2022-11-19T23:06:14.687Z,92.00
2022-11-19T23:08:42.759Z,92.10
2022-11-19T23:11:11.136Z,92.60
2022-11-19T23:13:40.070Z,92.10
2022-11-19T23:16:10.746Z,91.90
2022-11-19T23:18:40.545Z,91.90
2022-11-19T23:21:12.140Z,92.20
2022-11-19T23:23:40.235Z,92.10
2022-11-19T23:26:09.612Z,91.90
2022-11-19T23:28:37.996Z,92.10
2022-11-19T23:31:08.015Z,91.70
2022-11-19T23:33:35.906Z,91.70
2022-11-19T23:36:05.285Z,92.10
2022-11-19T23:38:35.806Z,92.20
2022-11-19T23:41:04.761Z,92.10
2022-11-19T23:43:32.719Z,92.00
2022-11-19T23:46:04.931Z,91.70
2022-11-19T23:48:33.470Z,91.00
2022-11-19T23:51:02.979Z,90.80
2022-11-19T23:53:31.025Z,91.20
2022-11-19T23:56:00.552Z,91.40
2022-11-19T23:58:28.579Z,91.40
